logo
App data

Tom Clancy's EndWar

Live the thrilling career of an army commander and lead your army to victory in a massive online World War III! Take control of the U.S.-led Joint Strike Force, the European Enforcers Corps, or the Russian Spetsnaz Guards Brigade in a persistent ongoing World War.
Store | Hub | SteamDB | Site
Developer: Ubisoft Shanghaï Publisher: Ubisoft
Genre: Strategy
Languages: English, French, German, Italian, Spanish - Spain
Tags: Strategy (96), RTS (45), Tactical (28), Voice Control (27), War (22), Multiplayer (21), Singleplayer (19)
Category: Single-player, Multi-player
Release date: Feb 25, 2009
Price: $9.99
Old userscore: 77% Metascore: 68%
Owners: 100,000 .. 200,000
Followers: 3,549
Peak concurrent players yesterday: 23
Playtime total: 04:36 (average) 05:23 (median)

Steam Spy is still in beta, so expect major bugs.

Owners data:

Access restricted.

This feature is only available to users with special access rights. Sorry.

If you want to proceed, you need to register or log in first and then back Steam Spy on Patreon. Look for Indie or Pro pledge.

Don't forget to use the same email as on Steam Spy!

If you've recently backed Steam Spy on Patreon, please note, that it might take around 15 minutes for your access rights to sync. In most cases you'll need to re-login on Steam Spy too.

Audience in 2 weeks:

Access restricted.

This feature is only available to users with special access rights. Sorry.

If you want to proceed, you need to register or log in first and then back Steam Spy on Patreon. Look for Indie or Pro pledge.

Don't forget to use the same email as on Steam Spy!

If you've recently backed Steam Spy on Patreon, please note, that it might take around 15 minutes for your access rights to sync. In most cases you'll need to re-login on Steam Spy too.

Peak daily concurrent players:

CCU data courtesy of SteamDB. Used with permission.

Hourly concurrent players:

Daily Twitch stats:

Hourly Twitch stats:

Followers over time

Access restricted.

This feature is only available to users with special access rights. Sorry.

If you want to proceed, you need to register or log in first and then back Steam Spy on Patreon. Look for Indie or Pro pledge.

Don't forget to use the same email as on Steam Spy!

If you've recently backed Steam Spy on Patreon, please note, that it might take around 15 minutes for your access rights to sync. In most cases you'll need to re-login on Steam Spy too.

Views for top 50 videos on YouTube for this game:

Games similar to this one:

# Game Release date
Price
Score rank
(Userscore / Metascore)
Owners
Players
Playtime (Median)
1 ShootMania Storm Apr 10, 2013 $19.99N/A (N/A/76%)50,000 .. 100,0000%00:00 (00:00)
2 Survivor Squad: Gauntlets Nov 16, 2015 $0.99N/A (N/A)20,000 .. 50,0000%00:00 (00:00)
3 Defend Your Crypt Jul 21, 2016 $2.99N/A (N/A)20,000 .. 50,0000%00:00 (00:00)
4 Dungeons - The Dark Lord Sep 27, 2011 $19.99N/A (N/A/72%)100,000 .. 200,0000%00:00 (00:00)
5 Hunters Of The Dead Sep 4, 2014 $4.99N/A (N/A)0 .. 20,0000%00:00 (00:00)
6 Phoning Home Feb 7, 2017 $9.99N/A (N/A/61%)100,000 .. 200,0000%00:00 (00:00)
7 Patrician IV Sep 17, 2010 $14.99N/A (N/A/66%)100,000 .. 200,0000%00:00 (00:00)
8 Nux Dec 26, 2006 $6.99N/A (N/A)100,000 .. 200,0000%00:00 (00:00)
9 The Seven Years War (1756-1763) Oct 30, 2015 $19.99N/A (N/A)20,000 .. 50,0000%00:00 (00:00)
10 LEGO Indiana Jones 2: The Adventure Continues Feb 18, 2010 $19.99N/A (N/A/66%)50,000 .. 100,0000%00:00 (00:00)
11 Brigade E5: New Jagged Union Oct 17, 2006 $3.99N/A (N/A/41%)20,000 .. 50,0000%00:00 (00:00)
12 Vendetta - Curse of Raven's Cry Nov 20, 2015 $29.99N/A (N/A)200,000 .. 500,0000%00:00 (00:00)
13 Ghost Master Aug 23, 2003 $4.99N/A (N/A/81%)100,000 .. 200,0000%00:00 (00:00)
14 Avoid - Sensory Overload Apr 8, 2014 $4.99N/A (N/A)20,000 .. 50,0000%00:00 (00:00)
15 Superstatic Sep 15, 2015 $4.99N/A (N/A)0 .. 20,0000%00:00 (00:00)
16 Meltdown Jun 5, 2014 $6.99N/A (N/A)100,000 .. 200,0000%00:00 (00:00)
17 Super Furball May 13, 2014 $3.99N/A (N/A)0 .. 20,0000%00:00 (00:00)
18 Hot Tin Roof: The Cat That Wore A Fedora Feb 20, 2015 $14.99N/A (N/A/66%)50,000 .. 100,0000%00:00 (00:00)
19 Burstfire Sep 24, 2015 N/AN/A (N/A)20,000 .. 50,0000%00:00 (00:00)
20 Death's Hangover Jan 20, 2017 $4.99N/A (N/A)20,000 .. 50,0000%00:00 (00:00)
21 Ittle Dew Jul 23, 2013 $9.99N/A (N/A/67%)100,000 .. 200,0000%00:00 (00:00)
22 Death Ray Manta SE Sep 17, 2015 $1.99N/A (N/A)20,000 .. 50,0000%00:00 (00:00)
23 Beasts Battle Jun 15, 2016 $3.99N/A (N/A)20,000 .. 50,0000%00:00 (00:00)
24 Zeno Clash 2 Apr 30, 2013 $9.99N/A (N/A)100,000 .. 200,0000%00:00 (00:00)
25 Desert Ashes Nov 10, 2014 $4.99N/A (N/A)20,000 .. 50,0000%00:00 (00:00)
26 Onechanbara Z2: Chaos Jun 2, 2016 $39.99N/A (N/A)20,000 .. 50,0000%00:00 (00:00)
27 Sengoku Sep 15, 2011 $9.99N/A (N/A/70%)100,000 .. 200,00020%00:33 (00:11)
28 Spirits of Xanadu Mar 26, 2015 $1.24N/A (N/A)20,000 .. 50,00016.67%00:06 (00:02)
29 Corgi Warlock Dec 3, 2015 $0.49N/A (N/A)20,000 .. 50,0000%00:00 (00:00)
30 Theatre of War 2: Africa 1943 Jul 9, 2010 $4.99N/A (N/A/63%)50,000 .. 100,0000%00:00 (00:00)
31 Psichodelya Aug 8, 2014 N/AN/A (N/A)50,000 .. 100,0000%00:00 (00:00)
32 Little King's Story Aug 5, 2016 $14.99N/A (N/A/62%)20,000 .. 50,0000%00:00 (00:00)
33 Starscape Mar 27, 2003 $7.99N/A (N/A)0 .. 20,0000%00:00 (00:00)
34 Marauder Sep 10, 2009 $9.99N/A (N/A)50,000 .. 100,0000%00:00 (00:00)
35 Zombie Killtime Aug 4, 2015 $1.99N/A (N/A)0 .. 20,0000%00:00 (00:00)
36 Ubersoldier II Jul 22, 2008 $9.99N/A (N/A/62%)50,000 .. 100,0000%00:00 (00:00)
37 Templar Battleforce Sep 21, 2015 $9.99N/A (N/A)100,000 .. 200,0000%00:00 (00:00)
38 Guns n Zombies Oct 30, 2014 $1.59N/A (N/A)100,000 .. 200,0000%00:00 (00:00)
39 Albino Lullaby: Episode 1 Sep 15, 2015 $9.99N/A (N/A)20,000 .. 50,0000%00:00 (00:00)
40 Tank Destroyer Mar 9, 2017 $0.99N/A (N/A)50,000 .. 100,0000%00:00 (00:00)
41 Flashback Oct 1, 2013 $9.99N/A (N/A)20,000 .. 50,0000%00:00 (00:00)
42 HitBox Jan 30, 2017 FreeN/A (N/A)20,000 .. 50,0000%00:00 (00:00)
43 Bulletstorm: Full Clip Edition Apr 7, 2017 $39.99N/A (N/A/76%)200,000 .. 500,0000%00:00 (00:00)
44 Anodyne Mar 22, 2013 $9.99N/A (N/A/75%)0 .. 20,0000%00:00 (00:00)
45 PixelJunk Shooter Ultimate Oct 21, 2015 $9.99N/A (N/A)50,000 .. 100,0000%00:00 (00:00)
46 Adventure World Aug 2, 2016 $4.99N/A (N/A)0 .. 20,0000%00:00 (00:00)
47 Disciples III - Resurrection Oct 11, 2011 $14.99N/A (N/A/63%)50,000 .. 100,0000%00:00 (00:00)
48 Platypus II Mar 17, 2007 $3.99N/A (N/A)200,000 .. 500,0000%00:00 (00:00)
49 Star Realms Mar 8, 2016 FreeN/A (N/A)100,000 .. 200,0000%00:00 (00:00)
50 Dungeons Feb 10, 2011 $9.99N/A (N/A/65%)200,000 .. 500,0000%00:00 (00:00)
51 Gold Rush! Classic Dec 23, 1988 $2.99N/A (N/A)100,000 .. 200,0000%00:00 (00:00)
52 Reverse Crawl Sep 24, 2015 $1.49N/A (N/A)50,000 .. 100,0000%00:00 (00:00)
53 Delta Force 2 Oct 31, 1999 $4.99N/A (N/A)100,000 .. 200,0000%00:00 (00:00)
54 Viktor Jun 13, 2014 $7.99N/A (N/A)20,000 .. 50,0000%00:00 (00:00)
55 Rise: Battle Lines Nov 17, 2015 N/AN/A (N/A)0 .. 20,0000%00:00 (00:00)
56 Lost Planet: Extreme Condition Jun 26, 2007 $14.99N/A (N/A/66%)200,000 .. 500,0000%00:00 (00:00)
57 Hard Truck Apocalypse: Arcade / Ex Machina: Arcade May 24, 2007 $4.99N/A (N/A)0 .. 20,0000%00:00 (00:00)
58 Ground Breakers Jun 15, 2016 $0.99N/A (N/A)20,000 .. 50,0000%00:00 (00:00)
59 Ku: Shroud of the Morrigan Mar 17, 2014 $4.99N/A (N/A)20,000 .. 50,0000%00:00 (00:00)
60 Redemption: Saints And Sinners Nov 18, 2016 $0.99N/A (N/A)50,000 .. 100,0000%00:00 (00:00)
61 Silent Storm Gold Edition Sep 9, 2004 $9.99N/A (N/A/83%)100,000 .. 200,0000%00:00 (00:00)
62 Planet of the Eyes Aug 24, 2015 $9.99N/A (N/A/66%)20,000 .. 50,0000%00:00 (00:00)
63 reconquest Dec 16, 2016 $11.99N/A (N/A)0 .. 20,0000%00:00 (00:00)
64 CastleStorm Jul 29, 2013 $9.99N/A (N/A/73%)100,000 .. 200,0000%00:00 (00:00)
65 RESCUE 2: Everyday Heroes Jun 3, 2015 $24.99N/A (N/A)50,000 .. 100,0000%00:00 (00:00)
66 Mr. Shifty Apr 13, 2017 $14.99N/A (N/A)100,000 .. 200,0000%00:00 (00:00)
67 Jagged Alliance 2 - Wildfire Mar 8, 2004 $6.99N/A (N/A)500,000 .. 1,000,0000%00:00 (00:00)
68 Run or Die Dec 11, 2014 $4.99N/A (N/A)20,000 .. 50,0000%00:00 (00:00)
69 GIBZ Apr 7, 2017 $7.99N/A (N/A)50,000 .. 100,0000%00:00 (00:00)
70 Fate of the World Feb 28, 2011 $9.99N/A (N/A/70%)50,000 .. 100,0000%00:00 (00:00)
71 Ys VI: The Ark of Napishtim Apr 28, 2015 $19.99N/A (N/A/76%)50,000 .. 100,0000%00:00 (00:00)
72 Monster Monpiece Mar 14, 2017 $9.99N/A (N/A)20,000 .. 50,0000%00:00 (00:00)
73 Theatre of War 2: Kursk 1943 Mar 9, 2010 $4.99N/A (N/A)50,000 .. 100,0000%00:00 (00:00)
74 Disney Pirates of the Caribbean: At Worlds End May 22, 2007 $19.99N/A (N/A)50,000 .. 100,0000%00:00 (00:00)
75 Toy Odyssey: The Lost and Found Sep 20, 2016 $14.99N/A (N/A/66%)20,000 .. 50,0000%00:00 (00:00)
76 Earth Defense Force: Insect Armageddon Dec 14, 2011 $9.99N/A (N/A/69%)50,000 .. 100,0000%00:00 (00:00)
77 7,62 High Calibre Aug 24, 2007 $4.99N/A (N/A)50,000 .. 100,0000%00:00 (00:00)
78 The Men of Yoshiwara: Kikuya Oct 14, 2015 $29.99N/A (N/A)20,000 .. 50,0000%00:00 (00:00)
79 Disciples Sacred Lands Gold Oct 4, 1999 $7.99N/A (N/A)50,000 .. 100,0000%00:00 (00:00)
80 Nomad Fleet Apr 19, 2016 $4.99N/A (N/A)50,000 .. 100,0000%00:00 (00:00)
81 Major Mayhem Feb 24, 2014 $4.99N/A (N/A)20,000 .. 50,0000%00:00 (00:00)
82 Dungeon Warfare Nov 4, 2015 $9.99N/A (N/A)50,000 .. 100,0000%00:00 (00:00)
83 Lords of the Black Sun Sep 12, 2014 $29.99N/A (N/A)50,000 .. 100,0000%00:00 (00:00)
84 Tiamat X May 29, 2015 $1.99N/A (N/A)20,000 .. 50,0000%00:00 (00:00)
85 ROD: Revolt Of Defense Aug 12, 2016 $0.99N/A (N/A)20,000 .. 50,0000%00:00 (00:00)
86 Eador: Genesis Aug 7, 2009 $5.99N/A (N/A)50,000 .. 100,0000%00:00 (00:00)
87 Fortified Feb 3, 2016 $14.99N/A (N/A)200,000 .. 500,0000%00:00 (00:00)
88 Purgatory Jun 22, 2016 $0.99N/A (N/A)50,000 .. 100,0000%00:00 (00:00)
89 Impire Feb 14, 2013 $19.99N/A (N/A/45%)100,000 .. 200,0000%00:00 (00:00)
90 Gold Rush! Anniversary Nov 7, 2014 $5.99N/A (N/A)50,000 .. 100,0000%00:00 (00:00)
91 Control Craft 2 Feb 15, 2016 $1.99N/A (N/A)20,000 .. 50,0000%00:00 (00:00)
92 A Game of Thrones - Genesis Sep 29, 2011 $9.99N/A (N/A)100,000 .. 200,0000%00:00 (00:00)
93 Airship Dragoon Aug 26, 2014 $3.99N/A (N/A)0 .. 20,0000%00:00 (00:00)
94 The Juicer Sep 6, 2012 $1.99N/A (N/A)50,000 .. 100,0000%00:00 (00:00)
95 Disciples III - Renaissance Steam Special Edition Jul 16, 2010 $14.99N/A (N/A/56%)100,000 .. 200,0000%00:00 (00:00)
96 Zombies on a Plane Mar 25, 2016 $4.99N/A (N/A)20,000 .. 50,0000%00:00 (00:00)
97 Cashtronauts Sep 1, 2016 $2.99N/A (N/A)0 .. 20,0000%00:00 (00:00)
98 Warhammer 40,000: Dawn of War – Winter Assault Jan 1, 2006 $12.99N/A (N/A)500,000 .. 1,000,0000%00:00 (00:00)
99 Disney Planes Oct 6, 2014 $19.99N/A (N/A)0 .. 20,0000%00:00 (00:00)
100 Tiki Man Jun 4, 2015 $2.99N/A (N/A)50,000 .. 100,0000%00:00 (00:00)
101 Shadow Blade: Reload Aug 10, 2015 $9.99N/A (N/A/70%)20,000 .. 50,0000%00:00 (00:00)
102 Curse of the Crescent Isle DX Aug 21, 2015 $0.99N/A (N/A)20,000 .. 50,0000%00:00 (00:00)
103 PixelJunk Shooter Nov 11, 2013 $8.99N/A (N/A/73%)100,000 .. 200,0000%00:00 (00:00)
104 Cultures - 8th Wonder of the World Mar 26, 2015 $0.49N/A (N/A)100,000 .. 200,0000%00:00 (00:00)
105 Lethal VR Nov 8, 2016 $3.74N/A (N/A/66%)20,000 .. 50,0000%00:00 (00:00)
106 Guncraft Aug 9, 2013 $14.99N/A (N/A/73%)50,000 .. 100,0000%00:00 (00:00)
107 Headlander Jul 25, 2016 $19.99N/A (N/A/74%)50,000 .. 100,0000%00:00 (00:00)
108 Weird Hero Nov 18, 2016 $3.99N/A (N/A)0 .. 20,0000%00:00 (00:00)
109 Eufloria HD Oct 14, 2014 $14.99N/A (N/A)100,000 .. 200,0000%00:00 (00:00)
110 The Hive Aug 25, 2016 $14.99N/A (N/A)0 .. 20,0000%00:00 (00:00)
111 Mad Bullets Jun 10, 2016 $2.99N/A (N/A)0 .. 20,0000%00:00 (00:00)
112 A.R.E.S.: Extinction Agenda Jan 20, 2011 $4.99N/A (N/A/68%)50,000 .. 100,0000%00:00 (00:00)
113 Battlezone Gold Edition May 11, 2017 $34.99N/A (N/A)0 .. 20,0000%00:00 (00:00)
114 Goblin Defenders: Steel‘n’ Wood Aug 21, 2013 $2.99N/A (N/A)20,000 .. 50,0000%00:00 (00:00)
115 Making History II: The War of the World Jun 22, 2010 $14.99N/A (N/A/38%)50,000 .. 100,0000%00:00 (00:00)
116 Momodora III Jul 1, 2014 $1.99N/A (N/A)50,000 .. 100,0000%00:00 (00:00)
117 Sir! I'd Like To Report A Bug! Oct 19, 2015 $1.99N/A (N/A)0 .. 20,0000%00:00 (00:00)
118 King Arthur - The Role-playing Wargame Nov 24, 2009 $4.99N/A (N/A)200,000 .. 500,0000%00:00 (00:00)
119 The Fall May 30, 2014 $9.99N/A (N/A/76%)200,000 .. 500,0000%00:00 (00:00)
120 Lost in Paradise Aug 20, 2015 $2.99N/A (N/A)20,000 .. 50,0000%00:00 (00:00)
121 Woolfe - The Red Hood Diaries Mar 17, 2015 $9.99N/A (N/A/55%)100,000 .. 200,0000%00:00 (00:00)
122 Gnumz: Masters of Defense Dec 21, 2015 $4.99N/A (N/A)200,000 .. 500,0000%00:00 (00:00)
123 Platformines Mar 28, 2014 $9.99N/A (N/A/67%)50,000 .. 100,0000%00:00 (00:00)
124 Commander Cool 2 Dec 17, 2015 $2.99N/A (N/A)50,000 .. 100,0000%00:00 (00:00)
125 Livelock Aug 30, 2016 $9.99N/A (N/A/73%)100,000 .. 200,0000%00:00 (00:00)
126 CRYPTARK Jun 20, 2017 $14.99N/A (N/A/80%)100,000 .. 200,0000%00:00 (00:00)
127 Handsome Mr. Frog Aug 8, 2016 $0.99N/A (N/A)0 .. 20,0000%00:00 (00:00)
128 Anomaly 2 May 15, 2013 $14.99N/A (N/A/77%)200,000 .. 500,0000%00:00 (00:00)
129 ManaCollect Apr 17, 2015 $6.99N/A (N/A)0 .. 20,0000%00:00 (00:00)
130 Slash or Die Jun 3, 2016 $5.99N/A (N/A)50,000 .. 100,0000%00:00 (00:00)
131 Men of War: Condemned Heroes Apr 12, 2012 $7.99N/A (N/A/57%)100,000 .. 200,0000%00:00 (00:00)
132 There Came an Echo Feb 24, 2015 $14.99N/A (N/A/58%)20,000 .. 50,0000%00:00 (00:00)
133 Banzai Escape Mar 16, 2016 $5.99N/A (N/A)20,000 .. 50,0000%00:00 (00:00)
134 Monday Night Combat Jan 24, 2011 $4.99N/A (N/A/82%)200,000 .. 500,0000%00:00 (00:00)
135 The Nightmare Cooperative Jul 16, 2014 $4.99N/A (N/A)20,000 .. 50,0000%00:00 (00:00)
136 Darknet Jun 8, 2017 $14.99N/A (N/A)0 .. 20,0000%00:00 (00:00)
137 Chaser Aug 22, 2003 $4.99N/A (N/A/66%)100,000 .. 200,0000%00:00 (00:00)
138 Overruled! Sep 15, 2015 $1.94N/A (N/A)20,000 .. 50,0000%00:00 (00:00)
139 FIVE: Guardians of David Nov 24, 2015 $9.99N/A (N/A/66%)20,000 .. 50,0000%00:00 (00:00)
140 Supreme Commander Sep 28, 2011 $12.99N/A (N/A/86%)500,000 .. 1,000,0000%00:00 (00:00)
141 TY the Tasmanian Tiger 4 Sep 17, 2015 $5.99N/A (N/A)20,000 .. 50,0000%00:00 (00:00)
142 Alarameth TD Jun 23, 2015 $4.99N/A (N/A)0 .. 20,0000%00:00 (00:00)
143 Z Jul 4, 2014 $6.99N/A (N/A)100,000 .. 200,0000%00:00 (00:00)
144 TASTEE: Lethal Tactics May 10, 2016 $14.99N/A (N/A)20,000 .. 50,0000%00:00 (00:00)
145 Jagged Alliance Flashback Oct 21, 2014 $4.99N/A (N/A)50,000 .. 100,0000%00:00 (00:00)
146 Fort Meow Jun 25, 2015 $7.99N/A (N/A)20,000 .. 50,0000%00:00 (00:00)
147 Mysterium: A Psychic Clue Game Jan 12, 2017 $6.99N/A (N/A)50,000 .. 100,0000%00:00 (00:00)
148 In Verbis Virtus Apr 3, 2015 $19.99N/A (N/A)100,000 .. 200,0000%00:00 (00:00)
149 Shadows of War Sep 19, 2014 $2.99N/A (N/A)20,000 .. 50,0000%00:00 (00:00)
150 Zombie Apocalypse: Escape The Undead City Nov 25, 2013 $0.99N/A (N/A)0 .. 20,0000%00:00 (00:00)
151 Arma Tactics Oct 1, 2013 $8.99N/A (N/A/47%)200,000 .. 500,0000%00:00 (00:00)
152 Viking Squad Oct 4, 2016 $14.99N/A (N/A)20,000 .. 50,0000%00:00 (00:00)
153 TableTop Soccer Apr 22, 2016 $0.99N/A (N/A)0 .. 20,0000%00:00 (00:00)
154 Demolition Inc. Sep 19, 2011 $5.99N/A (N/A)50,000 .. 100,0000%00:00 (00:00)
155 Supreme Ruler Ultimate Oct 17, 2014 $19.99N/A (N/A)50,000 .. 100,0000%00:00 (00:00)
156 Gurgamoth Feb 16, 2016 $9.99N/A (N/A)0 .. 20,0000%00:00 (00:00)
157 Armada 2526 Jun 10, 2010 $14.99N/A (N/A/66%)0 .. 20,0000%00:00 (00:00)
158 Bloodbath Jun 16, 2014 $14.99N/A (N/A)0 .. 20,0000%00:00 (00:00)
159 Square Brawl Oct 22, 2015 $4.99N/A (N/A)0 .. 20,0000%00:00 (00:00)
160 Crusaders: Thy Kingdom Come Oct 8, 2009 $9.99N/A (N/A)20,000 .. 50,0000%00:00 (00:00)
161 1849 May 8, 2014 $14.99N/A (N/A)20,000 .. 50,0000%00:00 (00:00)
162 Kidnapped Aug 4, 2015 $2.99N/A (N/A)100,000 .. 200,0000%00:00 (00:00)
163 Strategic War in Europe Mar 21, 2014 $14.99N/A (N/A)20,000 .. 50,0000%00:00 (00:00)
164 Spooky Cats Jun 4, 2015 $1.19N/A (N/A)20,000 .. 50,0000%00:00 (00:00)
165 Deadly 30 Jan 8, 2014 $4.99N/A (N/A)100,000 .. 200,0000%00:00 (00:00)
166 Cuban Missile Crisis May 6, 2005 $4.99N/A (N/A)20,000 .. 50,0000%00:00 (00:00)
167 Dark Matter Oct 17, 2013 $9.99N/A (N/A)200,000 .. 500,0000%00:00 (00:00)
168 Gratuitous Space Battles 2 Apr 16, 2015 $9.99N/A (N/A)20,000 .. 50,0000%00:00 (00:00)
169 Battle Time Sep 29, 2016 $0.99N/A (N/A)50,000 .. 100,0000%00:00 (00:00)
170 Fist Puncher Jun 21, 2013 $9.99N/A (N/A/73%)20,000 .. 50,0000%00:00 (00:00)
171 Bloodsports.TV Mar 30, 2015 $9.99N/A (N/A/69%)100,000 .. 200,0000%00:00 (00:00)
172 VRZ: Torment Jun 9, 2016 $9.99N/A (N/A)0 .. 20,0000%00:00 (00:00)
173 Jagged Alliance: Crossfire Aug 24, 2012 $3.74N/A (N/A/63%)100,000 .. 200,0000%00:00 (00:00)
174 Deadlings: Rotten Edition Nov 11, 2014 $3.99N/A (N/A)50,000 .. 100,0000%00:00 (00:00)
175 Story Of the Survivor Feb 17, 2016 $4.99N/A (N/A)0 .. 20,0000%00:00 (00:00)
176 Swords and Soldiers HD Dec 2, 2010 $5.99N/A (N/A)200,000 .. 500,0000%00:00 (00:00)
177 The Way May 20, 2016 $14.99N/A (N/A/67%)100,000 .. 200,0000%00:00 (00:00)
178 Crush Your Enemies Jul 13, 2016 $9.99N/A (N/A/63%)20,000 .. 50,0000%00:00 (00:00)
179 Rush for Berlin Gold Oct 29, 2009 $4.99N/A (N/A/76%)20,000 .. 50,0000%00:00 (00:00)
180 Space Colony: Steam Edition Apr 30, 2015 $14.99N/A (N/A)200,000 .. 500,0000%00:00 (00:00)
181 Sol 0: Mars Colonization Jan 15, 2016 $3.99N/A (N/A)50,000 .. 100,0000%00:00 (00:00)
182 Port Royale 2 Apr 30, 2004 $4.99N/A (N/A/75%)50,000 .. 100,0000%00:00 (00:00)
183 8-Bit Commando Jul 27, 2011 $0.99N/A (N/A)50,000 .. 100,0000%00:00 (00:00)
184 Biodrone Battle Jul 16, 2015 $1.99N/A (N/A)50,000 .. 100,0000%00:00 (00:00)
185 Battle Group 2 Jun 13, 2014 $7.99N/A (N/A)50,000 .. 100,0000%00:00 (00:00)
186 Disposable Heroes Mar 22, 2016 $1.99N/A (N/A)20,000 .. 50,0000%00:00 (00:00)
187 Bedlam Oct 13, 2015 N/AN/A (N/A/54%)100,000 .. 200,0007.14%00:22 (00:07)
188 Fair Strike Feb 5, 2004 $3.99N/A (N/A/56%)0 .. 20,0000%00:00 (00:00)
189 rooMaze Mar 3, 2017 $0.49N/A (N/A)50,000 .. 100,0000%00:00 (00:00)
190 Divinity: Dragon Commander Aug 6, 2013 $39.99N/A (N/A)200,000 .. 500,0000%00:00 (00:00)
191 Tallowmere Mar 3, 2015 $3.99N/A (N/A)100,000 .. 200,0000%00:00 (00:00)
192 FIVE: Champions of Canaan Sep 27, 2016 $3.99N/A (N/A)20,000 .. 50,0000%00:00 (00:00)
193 Rise of Venice Sep 27, 2013 $5.99N/A (N/A/66%)20,000 .. 50,0000%00:00 (00:00)
194 FEIST Jul 23, 2015 $9.99N/A (N/A/65%)20,000 .. 50,0000%00:00 (00:00)
195 Blasting Agent: Ultimate Edition Aug 17, 2016 $2.99N/A (N/A)0 .. 20,0000%00:00 (00:00)
196 Gatling Gears Aug 30, 2011 $9.99N/A (N/A)20,000 .. 50,0000%00:00 (00:00)
197 Foresight Nov 28, 2014 $4.99N/A (N/A)0 .. 20,0000%00:00 (00:00)
198 Into the Void Dec 4, 2015 $1.99N/A (N/A)20,000 .. 50,0000%00:00 (00:00)
199 RISK: Factions Soon N/AN/A (N/A/77%)50,000 .. 100,0000%00:00 (00:00)
200 Aeon Command Jul 3, 2014 $2.99N/A (N/A)20,000 .. 50,0000%00:00 (00:00)
201 Arcane Sorcery Sep 15, 2015 FreeN/A (N/A)100,000 .. 200,0000%00:00 (00:00)
202 Elven Legacy Apr 7, 2009 $4.99N/A (N/A/71%)50,000 .. 100,0000%00:00 (00:00)
203 Royal Defense Nov 6, 2014 $4.99N/A (N/A)100,000 .. 200,0000%00:00 (00:00)
204 Cross of the Dutchman Sep 10, 2015 $8.99N/A (N/A/59%)20,000 .. 50,0000%00:00 (00:00)
205 The Campaign Series: Fall Weiss May 30, 2014 $14.99N/A (N/A)20,000 .. 50,0000%00:00 (00:00)
206 Cast of the Seven Godsends - Redux Jul 20, 2015 $9.99N/A (N/A)20,000 .. 50,0000%00:00 (00:00)
207 Meridian: New World Apr 4, 2014 $1.39N/A (N/A/43%)50,000 .. 100,0000%00:00 (00:00)
208 Interloper May 21, 2015 FreeN/A (N/A/77%)0 .. 20,0000%00:00 (00:00)
209 Chainsaw Warrior Oct 7, 2013 $4.99N/A (N/A)0 .. 20,0000%00:00 (00:00)
210 David. Mar 14, 2014 $1.99N/A (N/A)100,000 .. 200,0000%00:00 (00:00)
211 BitMaster Oct 12, 2016 $0.5N/A (N/A)200,000 .. 500,0000%00:00 (00:00)
212 Citadels Jul 25, 2013 $2.99N/A (N/A/20%)50,000 .. 100,0000%00:00 (00:00)
213 Outcast 1.1 Dec 18, 2014 $5.99N/A (N/A)50,000 .. 100,0000%00:00 (00:00)
214 Mad Combat Marines Jul 13, 2016 $0.99N/A (N/A)50,000 .. 100,0000%00:00 (00:00)
215 Check vs Mate Aug 16, 2012 $19.99N/A (N/A/69%)20,000 .. 50,0000%00:00 (00:00)
216 Magnifico Dec 2, 2014 $4.99N/A (N/A)50,000 .. 100,0000%00:00 (00:00)
217 Pharaoh Rebirth+ Mar 17, 2016 $9.99N/A (N/A)0 .. 20,0000%00:00 (00:00)
218 Delve Deeper Sep 24, 2010 $4.99N/A (N/A)50,000 .. 100,0000%00:00 (00:00)
219 Battle Mages: Sign of Darkness Apr 13, 2006 $4.99N/A (N/A)0 .. 20,0000%00:00 (00:00)
220 Knight Adventure Oct 15, 2015 $0.99N/A (N/A)20,000 .. 50,0000%00:00 (00:00)
221 The Kings' Crusade Oct 8, 2010 $9.99N/A (N/A/71%)50,000 .. 100,0000%00:00 (00:00)
222 Victory At Sea Aug 8, 2014 $24.99N/A (N/A)50,000 .. 100,0000%00:00 (00:00)
223 Mold on Pizza Sep 25, 2015 $5.99N/A (N/A)20,000 .. 50,0000%00:00 (00:00)
224 Prison Tycoon 3: Lockdown Aug 1, 2007 $9.99N/A (N/A)20,000 .. 50,0000%00:00 (00:00)
225 Rex Rocket Aug 5, 2014 $4.99N/A (N/A)20,000 .. 50,0000%00:00 (00:00)
226 Tcheco in the Castle of Lucio Jun 22, 2015 $0.99N/A (N/A)50,000 .. 100,0000%00:00 (00:00)
227 Panzer Tactics HD May 22, 2014 $9.99N/A (N/A/69%)20,000 .. 50,0000%00:00 (00:00)
228 Close Combat - Panthers in the Fog Nov 19, 2012 $39.99N/A (N/A)20,000 .. 50,0000%00:00 (00:00)
229 Last Knight: Rogue Rider Edition Oct 3, 2014 $7.99N/A (N/A)20,000 .. 50,0000%00:00 (00:00)
230 Locoland Nov 22, 2003 $4.99N/A (N/A)0 .. 20,0000%00:00 (00:00)
231 Afghanistan '11 Mar 23, 2017 $29.99N/A (N/A)0 .. 20,0000%00:00 (00:00)
232 Sid Meier’s Ace Patrol Aug 27, 2013 $4.99N/A (N/A)200,000 .. 500,0000%00:00 (00:00)
233 The Tiny Tale 2 Jan 30, 2015 $6.99N/A (N/A)0 .. 20,0000%00:00 (00:00)
234 Ballistic Tanks Sep 20, 2016 $4.99N/A (N/A)0 .. 20,0000%00:00 (00:00)
235 Sang-Froid - Tales of Werewolves Apr 5, 2013 FreeN/A (N/A/79%)20,000 .. 50,0000%00:00 (00:00)
236 TRON 2.0 Aug 22, 2003 $9.99N/A (N/A/84%)100,000 .. 200,0000%00:00 (00:00)
237 Magic Quest May 6, 2016 $1.99N/A (N/A)50,000 .. 100,0000%00:00 (00:00)
238 Warp Mar 21, 2012 $9.99N/A (N/A)20,000 .. 50,0000%00:00 (00:00)
239 A.R.E.S. Extinction Agenda EX Oct 3, 2014 $9.99N/A (N/A)0 .. 20,0000%00:00 (00:00)
240 Elite vs. Freedom May 31, 2016 $4.99N/A (N/A)0 .. 20,0000%00:00 (00:00)
241 Greed Corp Dec 10, 2010 $9.99N/A (N/A/76%)100,000 .. 200,0000%00:00 (00:00)
242 Blue Estate The Game Apr 8, 2015 $12.99N/A (N/A/59%)50,000 .. 100,0000%00:00 (00:00)
243 Little Big Adventure 2 Oct 20, 2015 $3.99N/A (N/A)50,000 .. 100,0000%00:00 (00:00)
244 Supreme Ruler 2020 Gold Jun 17, 2008 $9.99N/A (N/A/65%)50,000 .. 100,0000%00:00 (00:00)
245 Merchants of Kaidan Nov 10, 2014 $14.99N/A (N/A)100,000 .. 200,0000%00:00 (00:00)
246 Ninjahtic Jul 6, 2015 $1.99N/A (N/A)0 .. 20,0000%00:00 (00:00)
247 Act of War: Direct Action Mar 14, 2005 $2.99N/A (N/A/82%)50,000 .. 100,0000%00:00 (00:00)
248 Battleplan: American Civil War Jul 4, 2014 $9.99N/A (N/A/66%)100,000 .. 200,0000%00:00 (00:00)
249 Weapon of Choice Sep 23, 2015 $4.99N/A (N/A)0 .. 20,0000%00:00 (00:00)
250 Ground Pounders Jul 15, 2014 $4.99N/A (N/A)0 .. 20,0000%00:00 (00:00)
251 Assassin’s Creed Chronicles: India Jan 12, 2016 $9.99N/A (N/A)50,000 .. 100,0000%00:00 (00:00)
252 Anomaly Warzone Earth Mobile Campaign Nov 6, 2013 $4.99N/A (N/A)100,000 .. 200,0000%00:00 (00:00)
253 The Bluecoats: North vs South (2012) May 10, 2012 N/AN/A (N/A)20,000 .. 50,0000%00:00 (00:00)
254 Zombo Buster Rising Oct 2, 2016 $1.99N/A (N/A)20,000 .. 50,0000%00:00 (00:00)
255 7 Grand Steps: What Ancients Begat Jun 7, 2013 $19.99N/A (N/A)50,000 .. 100,0000%00:00 (00:00)
256 Velocity 2X Aug 19, 2015 $19.99N/A (N/A)50,000 .. 100,0000%00:00 (00:00)
257 Smithy Jun 3, 2016 $0.49N/A (N/A)20,000 .. 50,0000%00:00 (00:00)
258 Conflict Desert Storm Sep 13, 2002 $6.99N/A (N/A/56%)100,000 .. 200,0000%00:00 (00:00)
259 Toren May 11, 2015 $9.99N/A (N/A/57%)100,000 .. 200,0000%00:00 (00:00)
260 Age of Gladiators Feb 25, 2016 $9.99N/A (N/A)100,000 .. 200,0000%00:00 (00:00)
261 Fantasy Wars Aug 6, 2010 $4.99N/A (N/A/67%)50,000 .. 100,0000%00:00 (00:00)
262 The Stalin Subway: Red Veil Oct 24, 2014 $2.99N/A (N/A)50,000 .. 100,0000%00:00 (00:00)
263 Run Rabbit Run Mar 31, 2016 $3.99N/A (N/A)0 .. 20,0000%00:00 (00:00)
264 Sword of the Stars II: Enhanced Edition Nov 30, 2012 $19.99N/A (N/A/65%)200,000 .. 500,0000%00:00 (00:00)
265 Orbital Gear Aug 7, 2014 $9.99N/A (N/A/59%)200,000 .. 500,0000%00:00 (00:00)
266 Ninjahtic Mind Tricks Jul 16, 2015 $1.99N/A (N/A)20,000 .. 50,0000%00:00 (00:00)
267 Heroes of Might & Magic V: Hammers of Fate Nov 14, 2006 $9.99N/A (N/A/66%)50,000 .. 100,0000%00:00 (00:00)
268 Strike Suit Zero: Director's Cut Apr 8, 2014 $19.99N/A (N/A)20,000 .. 50,0000%00:00 (00:00)
269 Rack N Ruin Sep 1, 2015 $9.99N/A (N/A)0 .. 20,0000%00:00 (00:00)
270 RIVE: Wreck, Hack, Die, Retry! Sep 13, 2016 $14.99N/A (N/A)100,000 .. 200,0000%00:00 (00:00)
271 Pongo May 14, 2015 $0.49N/A (N/A)50,000 .. 100,0000%00:00 (00:00)
272 Pixel Boy and the Ever Expanding Dungeon May 30, 2014 N/AN/A (N/A)20,000 .. 50,0000%00:00 (00:00)
273 King of Dragon Pass Jul 28, 2015 $11.99N/A (N/A)50,000 .. 100,0000%00:00 (00:00)
274 Civil War: Battle of Petersburg Feb 8, 2017 $0.49N/A (N/A)0 .. 20,0000%00:00 (00:00)
275 VelocityUltra Dec 12, 2013 $9.99N/A (N/A)20,000 .. 50,0000%00:00 (00:00)
276 Colonial Conquest Jul 28, 2015 $3.99N/A (N/A)20,000 .. 50,0000%00:00 (00:00)
277 Pigmentone Jul 8, 2016 $1.99N/A (N/A)0 .. 20,0000%00:00 (00:00)
278 March of the Eagles Feb 18, 2013 $19.99N/A (N/A/71%)50,000 .. 100,0000%00:00 (00:00)
279 Frozen Synapse Prime Nov 14, 2014 N/AN/A (N/A/83%)100,000 .. 200,0000%00:00 (00:00)
280 Amaranthine Apr 6, 2016 $2.99N/A (N/A)0 .. 20,0000%00:00 (00:00)
281 Battle Chess: Game of Kings Dec 11, 2015 $29.99N/A (N/A)20,000 .. 50,0000%00:00 (00:00)
282 Stonerid Dec 18, 2013 $4.99N/A (N/A)20,000 .. 50,0000%00:00 (00:00)
283 Neon Chrome Apr 28, 2016 $14.99N/A (N/A/74%)0 .. 20,0000%00:00 (00:00)
284 Commander: Conquest of the Americas Jul 30, 2010 $9.99N/A (N/A/68%)20,000 .. 50,0000%00:00 (00:00)
285 Heavy Fire: Afghanistan Aug 15, 2014 $2.99N/A (N/A)50,000 .. 100,0000%00:00 (00:00)
286 Ace of Protectors Jun 27, 2016 $1.99N/A (N/A)20,000 .. 50,0000%00:00 (00:00)
287 Majesty Gold HD Mar 23, 2001 $9.99N/A (N/A)100,000 .. 200,0000%00:00 (00:00)
288 Hero Generations Apr 10, 2015 $5.99N/A (N/A)20,000 .. 50,0000%00:00 (00:00)
289 Heavy Fire: Shattered Spear Oct 23, 2015 $3.99N/A (N/A)0 .. 20,0000%00:00 (00:00)
290 Advent Rising Aug 9, 2005 $9.99N/A (N/A/70%)50,000 .. 100,0000%00:00 (00:00)
291 The Entente Gold Aug 11, 2003 $1.99N/A (N/A)50,000 .. 100,0000%00:00 (00:00)
292 Explosionade Sep 23, 2015 $3.99N/A (N/A)0 .. 20,0000%00:00 (00:00)
293 Gun Metal Sep 23, 2003 $2.99N/A (N/A)200,000 .. 500,0000%00:00 (00:00)
294 Chronostorm: Siberian Border Nov 20, 2015 $0.99N/A (N/A)0 .. 20,0000%00:00 (00:00)
295 Zombie Tycoon 2: Brainhov's Revenge Dec 9, 2013 $4.99N/A (N/A)50,000 .. 100,0000%00:00 (00:00)
296 Rise & Shine Jan 13, 2017 $14.99N/A (N/A)50,000 .. 100,0000%00:00 (00:00)
297 MinosMaze - The Minotaur's Labyrinth May 1, 2017 $4.99N/A (N/A)20,000 .. 50,0000%00:00 (00:00)
298 Bleed Jul 3, 2013 $1.24N/A (N/A)100,000 .. 200,0000%00:00 (00:00)
299 Royal Bounty HD Aug 10, 2015 $2.99N/A (N/A)0 .. 20,0000%00:00 (00:00)
300 Pick a Hero Jun 9, 2016 $1.99N/A (N/A)0 .. 20,0000%00:00 (00:00)
301 Call of Duty: Black Ops - Mac Edition Sep 27, 2012 N/AN/A (N/A)50,000 .. 100,0000%00:00 (00:00)
302 Wickland Nov 14, 2014 $0.99N/A (N/A)50,000 .. 100,0000%00:00 (00:00)
303 DreamBreak Jul 21, 2016 $1.74N/A (N/A/46%)20,000 .. 50,0000%00:00 (00:00)
304 Men of War: Vietnam Sep 8, 2011 $7.99N/A (N/A/68%)200,000 .. 500,0000%00:00 (00:00)
305 The Stalin Subway Sep 19, 2014 $3.99N/A (N/A)100,000 .. 200,0000%00:00 (00:00)
306 Death by Game Show Jan 22, 2016 $1.99N/A (N/A)0 .. 20,0000%00:00 (00:00)
307 Dead Rising 2: Off the Record Oct 11, 2011 $19.99N/A (N/A/66%)500,000 .. 1,000,0000%00:00 (00:00)
308 Rooks Keep Dec 5, 2014 $7.99N/A (N/A)0 .. 20,0000%00:00 (00:00)
309 Tic-Toc-Tower Sep 28, 2015 $2.99N/A (N/A)20,000 .. 50,0000%00:00 (00:00)
310 Nuclear Dawn Sep 26, 2011 $9.99N/A (N/A/71%)200,000 .. 500,0000%00:00 (00:00)
311 Freight Tycoon Inc. Aug 15, 2007 $4.99N/A (N/A)20,000 .. 50,0000%00:00 (00:00)
312 Valley Aug 24, 2016 $14.99N/A (N/A)200,000 .. 500,0000%00:00 (00:00)
313 Interplanetary May 12, 2015 N/AN/A (N/A)100,000 .. 200,0000%00:00 (00:00)
314 Crossfire: Dungeons Jan 15, 2007 $3.99N/A (N/A)20,000 .. 50,0000%00:00 (00:00)
315 Unearthed: Trail of Ibn Battuta - Episode 1 - Gold Edition Jan 3, 2014 $4.99N/A (N/A)50,000 .. 100,0000%00:00 (00:00)
316 Urban Empire Jan 20, 2017 $29.99N/A (N/A/62%)100,000 .. 200,0000%00:00 (00:00)
317 Heroes of Arca Feb 16, 2017 FreeN/A (N/A)0 .. 20,0000%00:00 (00:00)
318 ENSLAVED: Odyssey to the West Premium Edition Oct 24, 2013 $19.99N/A (N/A/70%)200,000 .. 500,0000%00:00 (00:00)
319 Super Cyborg Jul 8, 2015 $4.99N/A (N/A)20,000 .. 50,0000%00:00 (00:00)
320 Sorcerer King: Rivals Sep 22, 2016 $9.99N/A (N/A)50,000 .. 100,0000%00:00 (00:00)
321 Skulls of the Shogun Jul 29, 2013 $9.99N/A (N/A/72%)100,000 .. 200,0000%00:00 (00:00)
322 Robotex Nov 19, 2014 $4.99N/A (N/A)200,000 .. 500,0000%00:00 (00:00)
323 Odd||Even Apr 6, 2016 $0.99N/A (N/A)50,000 .. 100,0000%00:00 (00:00)
324 A Game of Dwarves Oct 23, 2012 $9.99N/A (N/A/60%)100,000 .. 200,0000%00:00 (00:00)
325 Prophour23 Oct 22, 2014 $9.99N/A (N/A)20,000 .. 50,0000%00:00 (00:00)
326 Super Helmets on Fire DX Ultra Edition Plus Alpha Feb 15, 2016 FreeN/A (N/A)0 .. 20,0000%00:00 (00:00)
327 Atom Zombie Smasher Mar 14, 2011 $9.99N/A (N/A/75%)200,000 .. 500,0000%00:00 (00:00)
328 Will Fight for Food: Super Actual Sellout: Game of the Hour Apr 22, 2015 $4.99N/A (N/A)20,000 .. 50,0000%00:00 (00:00)
329 Prospekt Feb 18, 2016 $5.99N/A (N/A/43%)100,000 .. 200,0000%00:00 (00:00)
330 Caster Mar 19, 2009 $1.99N/A (N/A)200,000 .. 500,0000%00:00 (00:00)
331 Evopollution Apr 23, 2014 $4.99N/A (N/A)0 .. 20,0000%00:00 (00:00)
332 Infection: Humanity's Last Gasp May 26, 2016 $9.99N/A (N/A)0 .. 20,0000%00:00 (00:00)
333 Civilization IV: Warlords Jul 24, 2006 $4.99N/A (N/A/84%)1,000,000 .. 2,000,0000%00:00 (00:00)
334 Enemy Mind Jun 6, 2014 $9.99N/A (N/A)100,000 .. 200,0000%00:00 (00:00)
335 Defend The Highlands Nov 6, 2015 $9.99N/A (N/A)200,000 .. 500,0000%00:00 (00:00)
336 Antisquad Oct 31, 2014 $5.99N/A (N/A)50,000 .. 100,0000%00:00 (00:00)
337 Weather Lord: The Successor's Path Apr 8, 2015 $4.99N/A (N/A)0 .. 20,0000%00:00 (00:00)
338 Dusty Revenge:Co-Op Edition Feb 17, 2014 $14.99N/A (N/A)50,000 .. 100,0000%00:00 (00:00)
339 The Asskickers-Steam Edition Feb 6, 2015 $9.99N/A (N/A)0 .. 20,0000%00:00 (00:00)
340 Toadled Sep 22, 2016 $0.99N/A (N/A)50,000 .. 100,0000%00:00 (00:00)
341 Wanderlust Adventures Aug 10, 2015 $9.99N/A (N/A)50,000 .. 100,0000%00:00 (00:00)
342 Urja Jan 9, 2015 $9.99N/A (N/A)20,000 .. 50,0000%00:00 (00:00)
343 Syrian Warfare Feb 21, 2017 $13.99N/A (N/A)200,000 .. 500,0000%00:00 (00:00)
344 Painkiller Hell & Damnation Oct 31, 2012 $19.99N/A (N/A/64%)200,000 .. 500,0000%00:00 (00:00)
345 War, the Game Jan 12, 2015 $6.99N/A (N/A/65%)20,000 .. 50,0000%00:00 (00:00)
346 Scapeland Mar 31, 2016 $3.99N/A (N/A)0 .. 20,0000%00:00 (00:00)
347 Carrier Command: Gaea Mission Sep 28, 2012 $32.99N/A (N/A/60%)200,000 .. 500,0000%00:00 (00:00)
348 Super Trench Attack! Jul 24, 2014 $0.49N/A (N/A)50,000 .. 100,0000%00:00 (00:00)
349 Galaxy Admirals Jan 17, 2017 $1.99N/A (N/A)20,000 .. 50,0000%00:00 (00:00)
350 Star Wolves 3: Civil War Mar 2, 2010 $4.99N/A (N/A)100,000 .. 200,0000%00:00 (00:00)
351 The Few Jun 18, 2014 $7.99N/A (N/A)50,000 .. 100,0000%00:00 (00:00)
352 Rubber and Lead Sep 4, 2015 $4.99N/A (N/A)20,000 .. 50,0000%00:00 (00:00)
353 Rocket Knight May 11, 2010 $14.99N/A (N/A/63%)0 .. 20,0000%00:00 (00:00)
354 Perimeter May 21, 2004 $3.99N/A (N/A/77%)20,000 .. 50,0000%00:00 (00:00)
355 Incandescent Jun 30, 2015 $0.49N/A (N/A)20,000 .. 50,0000%00:00 (00:00)
356 Making History: The Great War Jan 29, 2015 $24.49N/A (N/A)20,000 .. 50,0000%00:00 (00:00)
357 Blacksea Odyssey Jun 1, 2016 $9.99N/A (N/A/74%)20,000 .. 50,0000%00:00 (00:00)
358 SPACECOM Sep 17, 2014 $9.99N/A (N/A/68%)50,000 .. 100,0000%00:00 (00:00)
359 Bombshell Jan 29, 2016 $5.99N/A (N/A/43%)50,000 .. 100,0000%00:00 (00:00)
360 Defence to death May 11, 2017 $0.59N/A (N/A)20,000 .. 50,0000%00:00 (00:00)
361 Disney Epic Mickey 2: The Power of Two Nov 18, 2012 $19.99N/A (N/A)20,000 .. 50,0000%00:00 (00:00)
362 Dustoff Heli Rescue Mar 6, 2015 $3.99N/A (N/A)20,000 .. 50,0000%00:00 (00:00)
363 Extravaganza Rising Jul 21, 2016 N/AN/A (N/A)0 .. 20,0000%00:00 (00:00)

Tags over time:

Access restricted.

This feature is only available to users with special access rights. Sorry.

If you want to proceed, you need to register or log in first and then back Steam Spy on Patreon. Look for Indie or Pro pledge.

Don't forget to use the same email as on Steam Spy!

If you've recently backed Steam Spy on Patreon, please note, that it might take around 15 minutes for your access rights to sync. In most cases you'll need to re-login on Steam Spy too.

Owners of this game also own:

Access restricted.

This feature is only available to users with special access rights. Sorry.

If you want to proceed, you need to register or log in first and then back Steam Spy on Patreon. Look for Indie or Pro pledge.

Don't forget to use the same email as on Steam Spy!

If you've recently backed Steam Spy on Patreon, please note, that it might take around 15 minutes for your access rights to sync. In most cases you'll need to re-login on Steam Spy too.

Playtime distribution:

Access restricted.

This feature is only available to users with special access rights. Sorry.

If you want to proceed, you need to register or log in first and then back Steam Spy on Patreon. Look for Indie or Pro pledge.

Don't forget to use the same email as on Steam Spy!

If you've recently backed Steam Spy on Patreon, please note, that it might take around 15 minutes for your access rights to sync. In most cases you'll need to re-login on Steam Spy too.

Playtime (2 weeks):

Access restricted.

This feature is only available to users with special access rights. Sorry.

If you want to proceed, you need to register or log in first and then back Steam Spy on Patreon. Look for Indie or Pro pledge.

Don't forget to use the same email as on Steam Spy!

If you've recently backed Steam Spy on Patreon, please note, that it might take around 15 minutes for your access rights to sync. In most cases you'll need to re-login on Steam Spy too.

User reviews:

Login required.

Please register or log in to see this information.